Time;durP1;ratioP1;P1;durP2;ratioP2;P2;SDS_P1;SDS_P2;PMS_P1;PMS_P2;Temp;Humidity;BMP_temperature;BMP_pressure;BME280_temperature;BME280_humidity;BME280_pressure;Samples;Min_cycle;Max_cycle;Signal;HPM_P1;HPM_P2
2022/08/18 00:02:18;;;;;;;32.38;24.55;;;;;;;23.54;100.00;100083.99;1691135;83;21028;-70
2022/08/18 00:04:46;;;;;;;30.85;24.92;;;;;;;23.56;100.00;100085.13;1688608;83;21071;-70
2022/08/18 00:07:19;;;;;;;36.33;25.97;;;;;;;23.56;100.00;100082.49;1705027;82;21577;-70
2022/08/18 00:09:46;;;;;;;33.02;25.85;;;;;;;23.54;100.00;100088.41;1687936;82;21068;-69
2022/08/18 00:12:29;;;;;;;39.88;25.95;;;;;;;23.56;100.00;100085.13;1687962;83;21063;-70
2022/08/18 00:15:02;;;;;;;43.63;28.77;;;;;;;23.59;100.00;100087.44;1686708;83;21056;-69
2022/08/18 00:17:26;;;;;;;34.85;27.25;;;;;;;23.57;100.00;100086.78;1714342;83;21005;-69
2022/08/18 00:19:54;;;;;;;40.25;28.42;;;;;;;23.51;100.00;100093.50;1691704;83;21127;-69
2022/08/18 00:22:22;;;;;;;36.17;29.32;;;;;;;23.48;100.00;100087.73;1698635;83;21042;-69
2022/08/18 00:24:53;;;;;;;37.10;27.20;;;;;;;23.50;100.00;100093.19;1698740;83;20993;-69
2022/08/18 00:27:25;;;;;;;36.48;28.15;;;;;;;23.51;100.00;100092.19;1713966;82;21075;-70
2022/08/18 00:29:54;;;;;;;37.95;28.62;;;;;;;23.55;100.00;100094.00;1709548;84;21018;-69
2022/08/18 00:32:32;;;;;;;38.10;28.12;;;;;;;23.52;100.00;100089.91;1712100;83;21033;-69
2022/08/18 00:35:19;;;;;;;37.10;26.82;;;;;;;23.57;100.00;100086.78;1695225;82;21072;-69
2022/08/18 00:37:48;;;;;;;38.17;28.60;;;;;;;23.54;100.00;100084.46;1700717;83;21052;-69
2022/08/18 00:40:19;;;;;;;39.90;28.10;;;;;;;23.44;100.00;100086.42;1696829;82;21076;-69
2022/08/18 00:42:51;;;;;;;40.40;28.35;;;;;;;23.36;100.00;100088.06;1695864;83;21039;-69
2022/08/18 00:45:26;;;;;;;45.92;28.98;;;;;;;23.38;100.00;100086.59;1689361;82;21035;-70
2022/08/18 00:47:54;;;;;;;37.70;28.30;;;;;;;23.39;100.00;100087.72;1700428;82;21531;-69
2022/08/18 00:50:30;;;;;;;35.88;27.35;;;;;;;23.40;100.00;100089.88;1706034;83;21044;-69
2022/08/18 00:53:05;;;;;;;40.40;27.40;;;;;;;23.39;100.00;100092.98;1696656;83;21146;-69
2022/08/18 00:55:33;;;;;;;40.20;28.15;;;;;;;23.44;100.00;100090.36;1700300;83;21084;-69
2022/08/18 00:58:11;;;;;;;43.58;29.25;;;;;;;23.37;100.00;100096.76;1692575;83;21106;-70
2022/08/18 01:00:38;;;;;;;48.23;30.15;;;;;;;23.32;100.00;100099.06;1703051;82;21029;-70
2022/08/18 01:03:11;;;;;;;41.80;29.23;;;;;;;23.34;100.00;100095.78;1688444;82;21067;-70
2022/08/18 01:05:42;;;;;;;39.50;29.42;;;;;;;23.30;100.00;100095.77;1657557;86;21107;-70
2022/08/18 01:08:13;;;;;;;45.25;30.77;;;;;;;23.25;100.00;100090.98;1657785;85;21543;-69
2022/08/18 01:10:43;;;;;;;43.78;30.90;;;;;;;23.24;100.00;100090.66;1650219;86;22210;-70
2022/08/18 01:13:10;;;;;;;41.68;30.00;;;;;;;23.23;100.00;100095.56;1653930;86;21120;-69
2022/08/18 01:15:37;;;;;;;42.05;27.93;;;;;;;23.22;100.00;100095.25;1660519;86;21050;-70
2022/08/18 01:24:08;;;;;;;39.60;25.90;;;;;;;23.25;100.00;100083.59;1656721;86;21527;-69
2022/08/18 01:26:38;;;;;;;38.30;26.50;;;;;;;23.25;100.00;100076.53;1650617;86;21079;-69
2022/08/18 01:29:10;;;;;;;33.50;26.15;;;;;;;23.27;100.00;100076.38;1656475;86;21232;-70
2022/08/18 01:31:48;;;;;;;36.00;26.25;;;;;;;23.23;100.00;100065.37;1660716;86;21119;-69
2022/08/18 01:34:12;;;;;;;37.98;26.75;;;;;;;23.24;100.00;100068.84;1659307;85;21028;-70
2022/08/18 01:36:41;;;;;;;35.25;26.57;;;;;;;23.20;100.00;100070.95;1661063;86;21091;-69
2022/08/18 01:39:11;;;;;;;35.15;27.10;;;;;;;23.13;100.00;100073.88;1658365;86;21099;-69
2022/08/18 01:41:40;;;;;;;39.92;27.67;;;;;;;23.11;100.00;100077.97;1655844;85;21020;-69
2022/08/18 01:44:12;;;;;;;38.63;28.47;;;;;;;23.03;100.00;100085.00;1707645;83;21528;-69
2022/08/18 01:46:40;;;;;;;36.75;27.58;;;;;;;22.97;100.00;100080.70;1702048;82;21013;-69
2022/08/18 01:49:09;;;;;;;36.88;27.77;;;;;;;23.04;100.00;100085.35;1701970;83;21047;-69
2022/08/18 01:51:40;;;;;;;40.33;27.20;;;;;;;23.03;100.00;100088.44;1698609;83;21116;-69
2022/08/18 01:54:05;;;;;;;36.15;26.62;;;;;;;23.04;100.00;100084.85;1690567;83;21072;-69
2022/08/18 01:56:32;;;;;;;37.28;28.12;;;;;;;23.09;100.00;100085.19;1692893;82;21033;-69
2022/08/18 01:58:59;;;;;;;35.95;27.40;;;;;;;23.07;100.00;100081.89;1692859;82;21534;-69
2022/08/18 02:01:26;;;;;;;39.80;27.95;;;;;;;23.10;100.00;100081.59;1695909;83;21544;-69
2022/08/18 02:03:58;;;;;;;39.00;26.65;;;;;;;23.10;100.00;100080.77;1698060;83;21001;-69
2022/08/18 02:06:26;;;;;;;37.67;26.93;;;;;;;23.08;100.00;100078.80;1713485;82;21611;-69
2022/08/18 02:08:53;;;;;;;35.95;26.90;;;;;;;23.09;100.00;100077.80;1697301;83;21112;-69
2022/08/18 02:11:20;;;;;;;36.95;26.65;;;;;;;23.03;100.00;100073.19;1701077;83;21053;-69
2022/08/18 02:13:47;;;;;;;34.03;26.10;;;;;;;23.02;100.00;100080.25;1708441;83;21045;-69
2022/08/18 02:16:15;;;;;;;42.17;26.48;;;;;;;23.02;100.00;100074.19;1697870;83;21048;-69
2022/08/18 02:18:42;;;;;;;37.53;25.60;;;;;;;23.00;100.00;100085.63;1695619;83;21557;-70
2022/08/18 02:21:14;;;;;;;35.03;25.75;;;;;;;23.00;100.00;100084.31;1708745;84;21021;-70
2022/08/18 02:23:43;;;;;;;33.30;24.82;;;;;;;22.89;100.00;100085.08;1692596;82;21029;-69
2022/08/18 02:26:15;;;;;;;36.28;24.77;;;;;;;22.74;100.00;100092.73;1704061;83;21626;-69
2022/08/18 02:28:42;;;;;;;40.00;27.52;;;;;;;22.70;100.00;100094.02;1699318;82;21551;-70
2022/08/18 02:31:15;;;;;;;41.13;27.48;;;;;;;22.64;100.00;100081.03;1697667;83;22568;-69
2022/08/18 02:33:44;;;;;;;36.42;26.25;;;;;;;22.64;100.00;100088.91;1713228;81;21040;-69
2022/08/18 02:36:14;;;;;;;39.92;27.02;;;;;;;22.65;100.00;100085.78;1722491;83;21060;-69
2022/08/18 02:38:42;;;;;;;42.58;29.27;;;;;;;22.68;100.00;100090.73;1701900;83;21036;-69
2022/08/18 02:41:12;;;;;;;43.23;28.65;;;;;;;22.61;100.00;100097.10;1701848;82;21111;-69
2022/08/18 02:43:40;;;;;;;43.90;29.00;;;;;;;22.60;100.00;100098.88;1685383;83;21044;-69
2022/08/18 02:46:09;;;;;;;44.90;29.20;;;;;;;22.58;100.00;100099.53;1697811;83;21104;-69
2022/08/18 02:48:36;;;;;;;51.30;29.95;;;;;;;22.49;100.00;100093.92;1708687;83;21575;-69
2022/08/18 02:51:11;;;;;;;44.93;29.35;;;;;;;22.49;100.00;100091.30;1696677;83;21242;-69
2022/08/18 02:53:41;;;;;;;42.85;28.38;;;;;;;22.60;100.00;100083.14;1692209;83;21048;-69
2022/08/18 02:56:29;;;;;;;43.38;27.42;;;;;;;22.79;100.00;100089.98;1714292;82;21060;-69
2022/08/18 02:58:57;;;;;;;40.40;28.60;;;;;;;22.86;100.00;100091.47;1695842;82;21056;-68
2022/08/18 03:01:29;;;;;;;49.23;29.35;;;;;;;22.88;100.00;100089.52;1696115;82;21572;-69
2022/08/18 03:03:58;;;;;;;44.25;29.60;;;;;;;22.92;100.00;100087.41;1700867;83;21049;-69
2022/08/18 03:06:27;;;;;;;40.85;28.38;;;;;;;22.98;100.00;100097.27;1695848;82;21606;-69
2022/08/18 03:08:55;;;;;;;40.80;28.70;;;;;;;23.00;100.00;100099.24;1694066;83;21027;-69
2022/08/18 03:11:26;;;;;;;44.30;28.67;;;;;;;23.07;100.00;100096.83;1699452;83;21088;-69
2022/08/18 03:13:55;;;;;;;39.53;28.80;;;;;;;23.18;100.00;100099.99;1696098;82;21020;-69
2022/08/18 03:16:23;;;;;;;42.15;28.70;;;;;;;23.32;100.00;100102.50;1713209;84;21038;-69
2022/08/18 03:18:52;;;;;;;42.38;27.77;;;;;;;23.43;100.00;100103.18;1702696;82;21040;-69
2022/08/18 03:21:23;;;;;;;40.70;27.22;;;;;;;23.51;100.00;100103.19;1696348;82;21869;-69
2022/08/18 03:23:53;;;;;;;41.30;27.32;;;;;;;23.50;100.00;100098.91;1710080;81;21040;-68
2022/08/18 03:26:22;;;;;;;39.42;27.62;;;;;;;23.60;100.00;100106.98;1710211;83;21551;-69
2022/08/18 03:28:53;;;;;;;38.45;27.62;;;;;;;23.71;100.00;100105.03;1708794;82;21556;-69
2022/08/18 03:31:23;;;;;;;38.13;26.65;;;;;;;23.75;100.00;100112.92;1700291;83;21055;-69
2022/08/18 03:33:51;;;;;;;37.63;26.35;;;;;;;23.81;100.00;100110.17;1702424;82;21107;-70
2022/08/18 03:36:22;;;;;;;40.73;27.10;;;;;;;23.84;100.00;100109.83;1699396;83;21075;-69
2022/08/18 03:38:52;;;;;;;35.13;25.92;;;;;;;23.76;100.00;100106.19;1702971;83;21013;-69
2022/08/18 03:41:23;;;;;;;40.05;27.20;;;;;;;23.71;100.00;100107.66;1705734;82;21029;-69
2022/08/18 03:43:51;;;;;;;34.83;26.82;;;;;;;23.81;100.00;100115.42;1692839;83;21150;-69
2022/08/18 03:46:21;;;;;;;38.15;26.17;;;;;;;23.83;100.00;100109.02;1702471;82;21079;-70
2022/08/18 03:48:50;;;;;;;35.70;26.52;;;;;;;23.91;100.00;100112.14;1690164;83;21532;-70
2022/08/18 03:51:24;;;;;;;36.77;25.23;;;;;;;24.06;100.00;100117.05;1701698;83;21604;-70
2022/08/18 03:53:53;;;;;;;36.60;26.80;;;;;;;24.11;100.00;100119.20;1703344;83;21057;-69
2022/08/18 03:56:25;;;;;;;38.02;27.22;;;;;;;24.08;100.00;100123.47;1686209;82;21586;-69
2022/08/18 03:58:56;;;;;;;36.40;27.15;;;;;;;24.05;100.00;100114.11;1701038;82;21052;-69
2022/08/18 04:01:27;;;;;;;43.17;28.57;;;;;;;24.11;100.00;100121.34;1700680;83;21012;-69
2022/08/18 04:03:58;;;;;;;38.05;28.38;;;;;;;24.13;100.00;100121.18;1702677;83;21113;-69
2022/08/18 04:06:30;;;;;;;42.65;27.90;;;;;;;24.20;100.00;100122.14;1703051;83;21069;-69
2022/08/18 04:09:03;;;;;;;38.02;29.67;;;;;;;24.33;100.00;100115.90;1669293;85;21056;-69
2022/08/18 04:11:33;;;;;;;35.75;27.87;;;;;;;24.40;100.00;100114.23;1682700;85;21056;-69
2022/08/18 04:14:01;;;;;;;38.23;30.02;;;;;;;24.48;100.00;100111.27;1661745;85;22487;-69
2022/08/18 04:16:38;;;;;;;36.73;29.72;;;;;;;24.61;100.00;100114.70;1702046;82;21085;-69
2022/08/18 04:19:03;;;;;;;40.08;30.25;;;;;;;24.63;100.00;100116.17;1703484;83;21094;-69
2022/08/18 04:21:34;;;;;;;38.80;29.37;;;;;;;24.75;100.00;100114.01;1688516;83;21491;-69
2022/08/18 04:24:03;;;;;;;37.23;29.35;;;;;;;24.79;100.00;100110.05;1689987;83;21130;-69
2022/08/18 04:26:37;;;;;;;41.08;29.23;;;;;;;24.88;100.00;100114.30;1698663;82;21557;-69
2022/08/18 04:29:06;;;;;;;38.05;29.52;;;;;;;24.99;100.00;100107.33;1706010;83;21054;-69
2022/08/18 04:31:33;;;;;;;35.63;28.07;;;;;;;25.09;100.00;100116.84;1691085;83;21130;-69
2022/08/18 04:34:02;;;;;;;34.92;28.40;;;;;;;25.18;100.00;100119.28;1710858;81;21017;-69
2022/08/18 04:36:33;;;;;;;34.53;27.00;;;;;;;25.27;100.00;100124.03;1706345;82;21000;-69
2022/08/18 04:39:04;;;;;;;33.85;26.75;;;;;;;25.40;100.00;100127.41;1691041;83;21078;-70
2022/08/18 04:41:31;;;;;;;33.38;26.15;;;;;;;25.46;100.00;100125.39;1697768;82;21009;-69
2022/08/18 04:44:01;;;;;;;33.98;27.35;;;;;;;25.50;100.00;100127.19;1696927;82;21050;-69
2022/08/18 04:46:32;;;;;;;37.15;27.62;;;;;;;25.54;100.00;100123.21;1689708;82;21112;-69
2022/08/18 04:48:59;;;;;;;32.73;26.40;;;;;;;25.61;100.00;100125.96;1665424;83;21576;-69
2022/08/18 04:51:29;;;;;;;33.50;26.68;;;;;;;25.65;100.00;100125.94;1706475;83;21169;-69
2022/08/18 04:53:59;;;;;;;35.68;28.52;;;;;;;25.74;100.00;100120.94;1686515;83;21520;-69
2022/08/18 04:56:37;;;;;;;33.25;26.30;;;;;;;25.92;100.00;100121.48;1696233;83;21041;-69
2022/08/18 04:59:12;;;;;;;30.75;26.12;;;;;;;26.02;100.00;100127.03;1705694;83;21057;-69
2022/08/18 05:01:46;;;;;;;31.75;26.77;;;;;;;26.15;100.00;100124.59;1703003;83;21062;-69
2022/08/18 05:04:16;;;;;;;32.30;25.23;;;;;;;26.25;100.00;100125.66;1697199;83;21143;-69
2022/08/18 05:06:45;;;;;;;32.45;25.27;;;;;;;26.31;100.00;100130.22;1693359;83;21555;-69
2022/08/18 05:09:14;;;;;;;31.82;25.62;;;;;;;26.27;100.00;100128.94;1708959;82;21040;-69
2022/08/18 05:11:43;;;;;;;32.65;25.72;;;;;;;26.29;100.00;100125.63;1697214;83;21155;-69
2022/08/18 05:14:11;;;;;;;30.57;24.07;;;;;;;26.45;100.00;100128.61;1707478;83;21036;-69
2022/08/18 05:16:39;;;;;;;30.50;23.98;;;;;;;26.57;100.00;100130.64;1709989;81;21056;-69
2022/08/18 05:19:10;;;;;;;27.48;23.27;;;;;;;26.84;100.00;100136.28;1713324;83;21075;-69
2022/08/18 05:21:40;;;;;;;29.30;23.20;;;;;;;26.84;100.00;100136.28;1690284;83;21504;-69
2022/08/18 05:24:09;;;;;;;33.15;25.15;;;;;;;26.92;100.00;100133.54;1701945;83;21076;-69
2022/08/18 05:26:39;;;;;;;27.13;23.47;;;;;;;26.95;100.00;100131.06;1699609;83;21040;-69
2022/08/18 05:29:07;;;;;;;30.08;23.15;;;;;;;27.10;100.00;100127.88;1684319;83;21072;-69
2022/08/18 05:31:34;;;;;;;32.70;24.75;;;;;;;27.27;100.00;100129.85;1721219;83;21029;-69
2022/08/18 05:34:02;;;;;;;31.37;25.95;;;;;;;27.40;100.00;100122.56;1700594;83;21619;-70
2022/08/18 05:36:50;;;;;;;30.60;24.52;;;;;;;27.46;100.00;100122.32;1698807;83;21541;-69
2022/08/18 05:39:31;;;;;;;34.65;27.62;;;;;;;27.52;100.00;100121.57;1699148;82;21108;-69
2022/08/18 05:42:09;;;;;;;30.48;25.05;;;;;;;27.70;100.00;100119.30;1704146;82;21613;-70
2022/08/18 05:44:44;;;;;;;30.82;23.90;;;;;;;27.86;100.00;100120.04;1700690;83;21582;-69
2022/08/18 05:47:24;;;;;;;32.50;26.85;;;;;;;28.03;100.00;100117.99;1703548;82;21108;-69
2022/08/18 05:49:53;;;;;;;32.65;25.55;;;;;;;28.06;100.00;100125.05;1696009;83;21087;-69
2022/08/18 05:52:40;;;;;;;32.53;25.77;;;;;;;28.16;100.00;100120.23;1696198;83;21048;-69
2022/08/18 05:58:30;;;;;;;32.33;24.20;;;;;;;28.48;100.00;100124.61;1701385;83;21098;-69
2022/08/18 06:01:03;;;;;;;31.50;24.18;;;;;;;28.62;100.00;100132.16;1705694;83;21017;-69
2022/08/18 06:03:45;;;;;;;25.68;21.23;;;;;;;28.61;100.00;100125.25;1700082;82;21083;-69
2022/08/18 06:06:19;;;;;;;25.55;22.55;;;;;;;28.73;100.00;100126.33;1688024;83;21607;-70
2022/08/18 06:09:12;;;;;;;28.12;21.73;;;;;;;28.84;100.00;100128.92;1694107;83;21060;-70
2022/08/18 06:11:39;;;;;;;31.93;21.33;;;;;;;28.96;100.00;100130.51;1706428;82;21084;-70
2022/08/18 06:14:06;;;;;;;24.20;20.52;;;;;;;29.06;100.00;100130.95;1699172;83;21099;-69
2022/08/18 06:17:01;;;;;;;26.00;19.40;;;;;;;29.19;100.00;100127.56;1695070;83;21074;-70
2022/08/18 06:20:09;;;;;;;31.40;26.05;;;;;;;29.34;100.00;100124.77;1677593;82;21040;-70
2022/08/18 06:22:55;;;;;;;29.10;21.33;;;;;;;29.36;100.00;100130.17;1686875;82;21202;-70
2022/08/18 06:25:51;;;;;;;28.65;20.70;;;;;;;29.50;100.00;100127.53;1692940;83;21043;-69
2022/08/18 06:28:19;;;;;;;23.50;19.77;;;;;;;29.62;100.00;100127.24;1689939;83;21115;-69
2022/08/18 06:31:04;;;;;;;22.70;19.15;;;;;;;29.70;100.00;100132.36;1687805;82;21095;-70
2022/08/18 06:33:58;;;;;;;23.00;19.32;;;;;;;29.73;100.00;100134.65;1693450;82;21187;-69
2022/08/18 06:36:39;;;;;;;23.35;17.98;;;;;;;29.91;100.00;100127.94;1685739;83;21045;-70
2022/08/18 06:39:25;;;;;;;23.47;18.27;;;;;;;30.02;100.00;100131.29;1688545;83;21004;-69
2022/08/18 06:41:53;;;;;;;24.85;18.77;;;;;;;30.02;100.00;100129.97;1695618;82;21069;-69
2022/08/18 06:44:34;;;;;;;23.05;17.73;;;;;;;30.19;100.00;100136.18;1661587;82;21079;-70
2022/08/18 06:47:31;;;;;;;21.20;16.48;;;;;;;30.27;100.00;100132.83;1690829;82;21035;-70
2022/08/18 06:50:24;;;;;;;24.23;17.82;;;;;;;30.30;100.00;100132.42;1696558;82;21142;-69
2022/08/18 06:52:57;;;;;;;24.72;18.23;;;;;;;30.41;100.00;100132.30;1697505;83;21085;-69
2022/08/18 06:55:38;;;;;;;21.23;15.70;;;;;;;30.54;100.00;100138.12;1668754;83;21085;-70
2022/08/18 06:58:26;;;;;;;18.42;16.07;;;;;;;30.61;100.00;100132.26;1703253;83;21081;-69
2022/08/18 07:01:00;;;;;;;19.98;14.98;;;;;;;30.71;100.00;100138.47;1707280;83;21048;-69
2022/08/18 07:03:42;;;;;;;23.27;18.77;;;;;;;30.77;100.00;100139.48;1688172;83;21032;-69
2022/08/18 07:06:26;;;;;;;21.07;16.00;;;;;;;30.94;100.00;100140.17;1701377;82;21089;-69
2022/08/18 07:09:15;;;;;;;20.60;15.20;;;;;;;31.18;100.00;100140.45;1714408;81;21058;-69
2022/08/18 07:12:00;;;;;;;21.17;15.28;;;;;;;31.26;100.00;100136.22;1715199;82;21553;-69
2022/08/18 07:14:27;;;;;;;30.05;16.48;;;;;;;31.40;100.00;100135.64;1695029;83;21103;-69
2022/08/18 07:17:10;;;;;;;22.00;14.20;;;;;;;31.35;100.00;100140.80;1712786;82;21067;-70
2022/08/18 07:19:37;;;;;;;15.85;13.30;;;;;;;31.44;100.00;100132.05;1711647;82;21013;-69
2022/08/18 07:22:17;;;;;;;15.85;13.53;;;;;;;31.53;99.24;100136.13;1693412;82;21078;-69
2022/08/18 07:24:53;;;;;;;18.40;13.22;;;;;;;31.62;99.68;100133.48;1708314;83;21034;-70
2022/08/18 07:27:24;;;;;;;15.63;12.73;;;;;;;31.71;98.99;100130.88;1702381;83;21025;-70
2022/08/18 07:30:21;;;;;;;16.90;12.47;;;;;;;31.89;96.82;100132.77;1683864;83;21060;-70
2022/08/18 07:33:10;;;;;;;15.80;13.88;;;;;;;31.93;94.73;100133.95;1695178;82;21096;-70
2022/08/18 07:36:02;;;;;;;17.60;15.72;;;;;;;32.07;94.33;100123.23;1701505;83;21061;-70
2022/08/18 07:38:41;;;;;;;13.55;11.35;;;;;;;32.13;93.01;100125.83;1696874;82;21592;-69
2022/08/18 07:41:15;;;;;;;16.05;11.75;;;;;;;32.16;89.82;100129.93;1691931;82;21072;-70
2022/08/18 07:43:59;;;;;;;15.45;11.88;;;;;;;32.25;87.88;100129.13;1688175;82;21099;-70
2022/08/18 07:46:59;;;;;;;15.05;11.75;;;;;;;32.35;88.79;100124.10;1690814;82;21103;-69
2022/08/18 07:49:31;;;;;;;13.20;11.45;;;;;;;32.57;86.18;100130.38;1687811;82;21048;-70
2022/08/18 07:52:26;;;;;;;18.15;13.72;;;;;;;32.76;84.71;100125.84;1708433;81;21088;-69
2022/08/18 07:55:28;;;;;;;12.73;10.35;;;;;;;32.70;84.59;100122.22;1698478;82;21095;-69
2022/08/18 07:58:22;;;;;;;12.55;10.78;;;;;;;32.71;82.69;100124.66;1713420;83;21018;-70
2022/08/18 08:01:06;;;;;;;13.05;11.40;;;;;;;32.69;82.59;100124.59;1709611;82;21394;-69
2022/08/18 08:04:14;;;;;;;11.35;10.20;;;;;;;32.92;83.46;100117.23;1691837;83;21104;-69
2022/08/18 08:06:49;;;;;;;14.10;10.58;;;;;;;33.00;80.39;100118.26;1701296;83;21148;-70
2022/08/18 08:09:49;;;;;;;13.85;9.93;;;;;;;33.04;79.46;100113.30;1703170;82;21129;-70
2022/08/18 08:12:46;;;;;;;12.35;9.75;;;;;;;33.12;78.69;100116.48;1705794;83;21195;-69
2022/08/18 08:15:38;;;;;;;12.20;10.15;;;;;;;33.11;75.23;100115.37;1690357;82;21121;-69
2022/08/18 08:18:27;;;;;;;12.25;10.40;;;;;;;32.93;74.10;100112.22;1661710;83;21088;-69
2022/08/18 08:21:00;;;;;;;13.00;10.38;;;;;;;32.85;74.81;100112.00;1709600;82;21039;-69
2022/08/18 08:23:39;;;;;;;;;;;;;;;32.88;75.01;100108.87;1708734;83;21080;-69
2022/08/18 08:26:39;;;;;;;13.88;10.65;;;;;;;32.95;79.16;100102.14;1709434;82;20161;-69
2022/08/18 08:29:35;;;;;;;10.90;9.80;;;;;;;32.96;77.27;100099.75;1625488;87;21115;-69
2022/08/18 08:32:07;;;;;;;14.03;10.30;;;;;;;33.01;75.83;100105.23;1689264;83;21082;-69
2022/08/18 08:34:42;;;;;;;11.20;9.88;;;;;;;33.35;76.71;100101.59;1711824;83;21037;-69
2022/08/18 08:37:18;;;;;;;11.18;9.98;;;;;;;33.49;77.12;100103.55;1695869;82;21127;-69
2022/08/18 08:40:07;;;;;;;10.60;9.23;;;;;;;33.48;74.85;100097.94;1678376;84;21119;-69
2022/08/18 08:42:58;;;;;;;13.03;9.80;;;;;;;33.28;71.90;100097.70;1648870;83;21519;-69
2022/08/18 08:45:35;;;;;;;14.87;12.00;;;;;;;33.28;73.18;100098.23;1658971;84;21052;-70
2022/08/18 08:48:27;;;;;;;9.88;8.98;;;;;;;33.37;72.16;100090.17;1661799;84;21579;-70
2022/08/18 08:51:02;;;;;;;11.03;9.33;;;;;;;33.40;70.08;100094.27;1652240;84;21646;-70
2022/08/18 08:53:40;;;;;;;11.83;10.40;;;;;;;33.45;70.80;100086.38;1657245;84;21052;-69
2022/08/18 08:56:15;;;;;;;15.13;11.03;;;;;;;33.60;73.08;100089.92;1655650;84;22676;-69
2022/08/18 08:58:59;;;;;;;13.95;10.53;;;;;;;33.71;74.69;100095.31;1664400;83;21008;-69
2022/08/18 09:01:47;;;;;;;13.72;12.03;;;;;;;33.89;72.75;100091.73;1704265;82;21035;-69
2022/08/18 09:04:39;;;;;;;12.53;10.82;;;;;;;33.61;70.26;100092.91;1714997;82;21525;-69
2022/08/18 09:07:36;;;;;;;13.30;12.00;;;;;;;33.76;72.38;100091.98;1703433;82;21049;-69
2022/08/18 09:10:21;;;;;;;12.18;10.80;;;;;;;33.93;72.85;100090.76;1674602;84;21049;-69
2022/08/18 09:13:06;;;;;;;13.35;10.88;;;;;;;33.81;69.83;100085.94;1704948;82;21484;-68
2022/08/18 09:15:44;;;;;;;11.63;10.50;;;;;;;33.78;70.17;100083.22;1703953;84;21054;-69
2022/08/18 09:18:44;;;;;;;12.73;11.40;;;;;;;33.94;71.94;100076.34;1704746;81;21028;-69
2022/08/18 09:21:41;;;;;;;15.18;10.45;;;;;;;33.98;70.56;100078.04;1688443;83;21071;-69
2022/08/18 09:24:26;;;;;;;12.07;10.32;;;;;;;33.86;69.91;100081.54;1715851;82;21092;-69
2022/08/18 09:27:24;;;;;;;13.20;10.28;;;;;;;33.73;69.19;100085.22;1673514;85;21596;-70
2022/08/18 09:29:59;;;;;;;12.47;10.03;;;;;;;33.71;67.21;100079.83;1703400;82;21027;-70
2022/08/18 09:32:43;;;;;;;12.05;10.18;;;;;;;33.61;67.29;100079.56;1703708;83;21565;-69
2022/08/18 09:35:34;;;;;;;11.35;9.80;;;;;;;33.63;67.44;100074.83;1692689;83;21547;-69
2022/08/18 09:44:12;;;;;;;10.55;9.53;;;;;;;33.89;69.17;100082.39;1700826;82;21090;-70
2022/08/18 09:46:49;;;;;;;10.60;9.55;;;;;;;34.12;69.65;100085.57;1712724;82;21036;-70
2022/08/18 09:49:29;;;;;;;11.55;10.40;;;;;;;34.25;69.44;100080.55;1723327;81;21100;-70
2022/08/18 09:52:21;;;;;;;11.33;10.13;;;;;;;34.42;70.42;100076.62;1707698;83;21053;-69
2022/08/18 09:55:03;;;;;;;18.12;15.55;;;;;;;34.61;70.10;100073.78;1680870;83;21160;-69
2022/08/18 09:57:36;;;;;;;12.33;9.90;;;;;;;34.61;67.64;100066.60;1699111;82;21560;-70
2022/08/18 10:00:12;;;;;;;16.52;9.35;;;;;;;34.42;65.21;100075.29;1691902;82;21017;-69
2022/08/18 10:02:50;;;;;;;12.18;10.30;;;;;;;34.57;67.13;100066.76;1699829;82;21060;-70
2022/08/18 10:05:23;;;;;;;14.58;10.45;;;;;;;34.57;65.64;100067.29;1709913;82;21534;-70
2022/08/18 10:08:08;;;;;;;11.85;9.83;;;;;;;34.56;62.94;100063.81;1705425;83;21079;-69
2022/08/18 10:11:15;;;;;;;11.40;9.18;;;;;;;34.47;62.52;100055.36;1717954;83;21135;-70
2022/08/18 10:14:07;;;;;;;10.20;9.20;;;;;;;34.56;62.26;100045.10;1707502;82;21521;-70
2022/08/18 10:16:49;;;;;;;10.72;9.63;;;;;;;34.73;63.76;100042.50;1716139;82;21188;-71
2022/08/18 10:19:39;;;;;;;13.50;8.93;;;;;;;34.88;62.53;100045.48;1683032;83;21079;-69
2022/08/18 10:22:09;;;;;;;9.58;8.58;;;;;;;34.71;62.78;100045.94;1714754;81;21043;-71
2022/08/18 10:24:44;;;;;;;9.38;7.60;;;;;;;34.79;64.07;100045.56;1710091;82;21047;-69
2022/08/18 10:27:34;;;;;;;9.93;8.70;;;;;;;34.66;60.15;100039.98;1731246;81;21059;-71
2022/08/18 10:30:04;;;;;;;9.50;8.60;;;;;;;34.56;61.08;100052.31;1675197;84;21087;-71
2022/08/18 10:32:42;;;;;;;8.60;7.80;;;;;;;34.68;62.34;100054.45;1675337;84;21023;-69
2022/08/18 10:35:38;;;;;;;9.15;8.33;;;;;;;34.67;61.38;100053.66;1682729;84;21018;-69
2022/08/18 10:38:22;;;;;;;10.18;9.00;;;;;;;34.72;60.41;100055.60;1684493;83;21024;-69
2022/08/18 10:41:16;;;;;;;10.53;9.50;;;;;;;34.85;64.50;100049.95;1710040;82;21044;-70
2022/08/18 10:43:48;;;;;;;11.03;9.88;;;;;;;34.73;65.03;100049.72;1705850;82;21115;-70
2022/08/18 10:46:20;;;;;;;10.10;9.10;;;;;;;34.82;62.67;100050.44;1709454;82;20961;-70
2022/08/18 10:49:15;;;;;;;10.55;9.48;;;;;;;34.99;62.90;100053.68;1663912;84;21118;-69
2022/08/18 10:52:13;;;;;;;10.48;9.38;;;;;;;35.16;66.41;100047.88;1672492;83;21076;-69
2022/08/18 10:55:04;;;;;;;11.10;9.28;;;;;;;35.34;65.67;100046.81;1690955;82;21173;-69
2022/08/18 10:58:02;;;;;;;14.13;10.30;;;;;;;34.92;63.92;100036.45;1716775;82;21128;-69
2022/08/18 11:00:43;;;;;;;10.45;9.45;;;;;;;34.86;64.31;100037.41;1741218;82;21012;-69
2022/08/18 11:03:31;;;;;;;10.30;9.05;;;;;;;34.53;66.34;100045.56;1733127;81;21639;-69
2022/08/18 11:06:08;;;;;;;11.90;9.08;;;;;;;34.72;66.86;100051.59;1731502;82;21570;-69
2022/08/18 11:08:43;;;;;;;12.95;8.93;;;;;;;35.12;67.54;100066.77;1732588;81;21554;-68
2022/08/18 11:11:12;;;;;;;10.48;9.13;;;;;;;35.15;66.76;100059.61;1736826;82;21000;-70
2022/08/18 11:14:04;;;;;;;10.28;9.10;;;;;;;35.18;68.08;100051.13;1742070;82;21039;-69
2022/08/18 11:16:54;;;;;;;12.90;9.05;;;;;;;35.02;67.96;100055.89;1736209;82;21040;-69
2022/08/18 11:19:23;;;;;;;11.00;9.43;;;;;;;34.67;69.09;100059.00;1694852;82;21004;-69
2022/08/18 11:21:52;;;;;;;9.73;8.58;;;;;;;34.20;70.21;100075.09;1719696;82;21117;-69
2022/08/18 11:24:24;;;;;;;8.05;7.25;;;;;;;33.53;73.78;100079.36;1709663;82;21024;-70
2022/08/18 11:26:58;;;;;;;9.80;7.25;;;;;;;32.98;76.67;100076.87;1723028;82;21076;-69
2022/08/18 11:29:40;;;;;;;19.25;15.35;;;;;;;32.66;80.11;100069.06;1725012;82;21118;-69
2022/08/18 11:32:30;;;;;;;9.20;6.97;;;;;;;32.55;81.69;100063.17;1736608;82;21011;-69
2022/08/18 11:35:15;;;;;;;10.72;7.83;;;;;;;32.40;82.19;100067.00;1729655;81;21079;-69
2022/08/18 11:37:47;;;;;;;69.75;63.20;;;;;;;32.30;83.00;100079.48;1726586;82;20980;-69
2022/08/18 11:40:33;;;;;;;13.20;11.80;;;;;;;32.06;82.88;100078.50;1719368;82;21064;-69
2022/08/18 11:43:20;;;;;;;13.05;9.78;;;;;;;32.10;82.86;100078.36;1692484;82;21084;-69
2022/08/18 11:46:00;;;;;;;12.13;10.48;;;;;;;32.02;82.25;100069.32;1709762;82;21088;-69
2022/08/18 11:48:36;;;;;;;12.00;10.30;;;;;;;31.94;83.62;100062.92;1717115;82;21063;-69
2022/08/18 11:51:27;;;;;;;12.07;10.82;;;;;;;31.94;86.19;100061.06;1708939;82;21062;-69
2022/08/18 11:54:03;;;;;;;10.58;9.33;;;;;;;31.76;87.68;100057.56;1706546;81;21038;-69
2022/08/18 11:56:34;;;;;;;13.88;9.93;;;;;;;31.67;87.07;100060.50;1688305;82;21048;-69
2022/08/18 11:59:06;;;;;;;12.85;11.10;;;;;;;31.92;87.82;100052.48;1723163;82;21559;-70
2022/08/18 12:01:53;;;;;;;12.80;10.98;;;;;;;31.86;88.92;100056.55;1704127;83;21024;-70
2022/08/18 12:04:28;;;;;;;15.72;10.88;;;;;;;31.80;88.63;100056.89;1712979;82;21551;-70
2022/08/18 12:07:02;;;;;;;13.88;11.25;;;;;;;31.67;89.48;100050.34;1730466;82;21027;-70